createdAt,value
2022-08-16T00:00:03.200Z,16.33
2022-08-16T00:02:34.112Z,14.93
2022-08-16T00:05:05.628Z,13.07
2022-08-16T00:07:34.292Z,14.40
2022-08-16T00:10:04.833Z,13.57
2022-08-16T00:12:33.932Z,17.27
2022-08-16T00:15:11.516Z,14.70
2022-08-16T00:17:56.277Z,16.70
2022-08-16T00:20:27.608Z,16.60
2022-08-16T00:22:56.157Z,15.50
2022-08-16T00:26:36.582Z,14.93
2022-08-16T00:28:15.549Z,16.47
2022-08-16T00:30:43.879Z,16.43
2022-08-16T00:33:13.241Z,16.57
2022-08-16T00:35:42.987Z,15.40
2022-08-16T00:38:40.908Z,16.43
2022-08-16T00:41:01.793Z,15.87
2022-08-16T00:43:42.852Z,14.80
2022-08-16T00:46:22.416Z,17.53
2022-08-16T00:49:03.310Z,15.47
2022-08-16T00:51:33.696Z,15.60
2022-08-16T00:54:02.689Z,16.93
2022-08-16T00:56:56.601Z,14.77
2022-08-16T00:59:25.849Z,15.10
2022-08-16T01:01:54.601Z,15.53
2022-08-16T01:04:29.809Z,15.50
2022-08-16T01:07:03.015Z,15.50
2022-08-16T01:09:33.810Z,17.10
2022-08-16T01:12:04.609Z,16.37
2022-08-16T01:14:43.614Z,15.83
2022-08-16T01:17:14.686Z,18.87
2022-08-16T01:19:47.193Z,18.27
2022-08-16T01:22:48.559Z,19.10
2022-08-16T01:25:21.775Z,17.53
2022-08-16T01:27:54.590Z,16.90
2022-08-16T01:30:27.534Z,17.50
2022-08-16T01:33:02.550Z,16.80
2022-08-16T01:35:52.684Z,16.77
2022-08-16T01:38:25.698Z,15.60
2022-08-16T01:41:01.789Z,16.13
2022-08-16T01:43:32.722Z,15.87
2022-08-16T01:46:29.569Z,17.70
2022-08-16T01:48:56.498Z,19.90
2022-08-16T01:51:27.674Z,17.97
2022-08-16T01:53:57.603Z,17.43
2022-08-16T01:56:33.115Z,17.37
2022-08-16T01:59:07.838Z,17.50
2022-08-16T02:01:49.914Z,17.40
2022-08-16T02:04:48.835Z,20.13
2022-08-16T02:07:23.575Z,18.33
2022-08-16T02:09:58.790Z,15.40
2022-08-16T02:12:51.142Z,18.17
2022-08-16T02:15:26.045Z,16.00
2022-08-16T02:17:57.626Z,17.83
2022-08-16T02:20:28.010Z,16.50
2022-08-16T02:22:56.711Z,17.90
2022-08-16T02:25:25.171Z,16.70
2022-08-16T02:28:17.151Z,16.23
2022-08-16T02:30:50.492Z,17.90
2022-08-16T02:33:24.242Z,18.00
2022-08-16T02:35:58.303Z,18.20
2022-08-16T02:38:31.490Z,19.87
2022-08-16T02:41:09.618Z,20.50
2022-08-16T02:43:41.086Z,18.30
2022-08-16T02:46:10.796Z,18.77
2022-08-16T02:48:49.115Z,18.27
2022-08-16T02:51:19.632Z,17.33
2022-08-16T02:53:52.231Z,17.27
2022-08-16T02:56:22.080Z,18.77
2022-08-16T02:58:55.155Z,19.03
2022-08-16T03:01:37.210Z,18.33
2022-08-16T03:04:39.828Z,17.43
2022-08-16T03:07:09.259Z,16.30
2022-08-16T03:09:44.200Z,18.23
2022-08-16T03:12:16.391Z,18.13
2022-08-16T03:14:47.887Z,19.90
2022-08-16T03:17:18.620Z,20.97
2022-08-16T03:20:00.284Z,19.90
2022-08-16T03:22:37.232Z,18.43
2022-08-16T03:25:15.950Z,18.17
2022-08-16T03:27:54.171Z,18.33
2022-08-16T03:30:28.276Z,17.77
2022-08-16T03:33:00.800Z,19.23
2022-08-16T03:35:37.313Z,19.10
2022-08-16T03:38:35.999Z,18.40
2022-08-16T03:41:24.274Z,20.73
2022-08-16T03:43:57.259Z,18.27
2022-08-16T03:46:47.678Z,22.13
2022-08-16T03:49:37.065Z,22.07
2022-08-16T03:52:08.081Z,21.87
2022-08-16T03:54:38.298Z,20.53
2022-08-16T03:57:22.555Z,23.03
2022-08-16T03:59:54.017Z,19.83
2022-08-16T04:02:31.812Z,23.30
2022-08-16T04:05:04.083Z,19.83
2022-08-16T04:07:34.266Z,21.80
2022-08-16T04:10:36.897Z,21.03
2022-08-16T04:12:59.481Z,20.83
2022-08-16T04:15:30.657Z,20.97
2022-08-16T04:18:18.518Z,20.43
2022-08-16T04:20:46.900Z,21.80
2022-08-16T04:23:16.368Z,20.93
2022-08-16T04:25:47.073Z,20.33
2022-08-16T04:28:52.390Z,21.03
2022-08-16T04:31:07.218Z,20.03
2022-08-16T04:33:39.565Z,21.47
2022-08-16T04:36:20.949Z,22.90
2022-08-16T04:38:49.932Z,26.10
2022-08-16T04:41:18.632Z,25.00
2022-08-16T04:44:01.009Z,28.00
2022-08-16T04:47:02.176Z,23.93
2022-08-16T04:49:19.320Z,22.50
2022-08-16T04:51:53.600Z,22.80
2022-08-16T04:54:23.638Z,24.43
2022-08-16T04:56:52.135Z,27.60
2022-08-16T04:59:22.172Z,24.57
2022-08-16T05:01:58.609Z,24.77
2022-08-16T05:04:30.091Z,22.43
2022-08-16T05:06:59.253Z,26.10
2022-08-16T05:09:45.064Z,22.10
2022-08-16T05:12:18.244Z,20.23
2022-08-16T05:15:02.235Z,21.83
2022-08-16T05:17:33.858Z,21.13
2022-08-16T05:20:38.843Z,22.07
2022-08-16T05:22:59.564Z,19.70
2022-08-16T05:25:36.415Z,20.30
2022-08-16T05:28:11.819Z,20.17
2022-08-16T05:30:44.649Z,21.40
2022-08-16T05:33:18.620Z,18.87
2022-08-16T05:35:55.012Z,16.67
2022-08-16T05:38:39.641Z,17.60
2022-08-16T05:41:13.809Z,18.13
2022-08-16T05:43:47.704Z,15.70
2022-08-16T05:47:02.718Z,16.83
2022-08-16T05:50:03.974Z,17.23
2022-08-16T05:52:59.051Z,16.77
2022-08-16T05:55:41.936Z,16.13
2022-08-16T05:58:33.291Z,19.50
2022-08-16T06:01:13.765Z,19.27
2022-08-16T06:04:04.819Z,17.50
2022-08-16T06:07:08.164Z,17.83
2022-08-16T06:10:03.828Z,18.30
2022-08-16T06:12:55.846Z,20.67
2022-08-16T06:15:35.917Z,20.07
2022-08-16T06:21:31.119Z,17.97
2022-08-16T06:24:53.620Z,17.27
2022-08-16T06:30:56.310Z,17.57
2022-08-16T06:33:53.040Z,18.50
2022-08-16T06:36:27.177Z,16.47
2022-08-16T06:39:18.757Z,17.13
2022-08-16T06:42:07.174Z,17.10
2022-08-16T06:44:57.194Z,15.87
2022-08-16T06:47:57.112Z,16.10
2022-08-16T06:50:29.977Z,17.13
2022-08-16T06:53:08.303Z,18.73
2022-08-16T06:55:43.061Z,18.83
2022-08-16T06:58:22.749Z,18.93
2022-08-16T07:01:15.674Z,18.10
2022-08-16T07:03:55.028Z,17.97
2022-08-16T07:06:26.743Z,17.33
2022-08-16T07:08:58.193Z,16.77
2022-08-16T07:11:47.804Z,17.40
2022-08-16T07:14:27.584Z,17.07
2022-08-16T07:17:01.354Z,16.60
2022-08-16T07:20:04.117Z,18.23
2022-08-16T07:22:39.198Z,15.10
2022-08-16T07:25:16.713Z,14.57
2022-08-16T07:27:45.997Z,16.03
2022-08-16T07:30:45.980Z,14.77
2022-08-16T07:33:10.847Z,14.03
2022-08-16T07:35:49.834Z,14.97
2022-08-16T07:38:20.257Z,14.10
2022-08-16T07:41:09.902Z,13.13
2022-08-16T07:43:41.865Z,14.33
2022-08-16T07:46:37.624Z,11.80
2022-08-16T07:49:11.248Z,13.50
2022-08-16T07:51:42.247Z,14.93
2022-08-16T07:54:20.795Z,9.57
2022-08-16T07:56:53.177Z,7.90
2022-08-16T07:59:24.606Z,7.87
2022-08-16T08:01:53.332Z,6.57
2022-08-16T08:04:24.321Z,6.40
2022-08-16T08:07:01.398Z,6.63
2022-08-16T08:09:37.512Z,5.83
2022-08-16T08:12:31.437Z,4.13
2022-08-16T08:15:01.014Z,4.30
2022-08-16T08:17:42.726Z,4.10
2022-08-16T08:20:28.114Z,3.77
2022-08-16T08:23:00.539Z,4.23
2022-08-16T08:25:53.458Z,3.93
2022-08-16T08:28:20.520Z,4.63
2022-08-16T08:31:01.039Z,4.03
2022-08-16T08:33:47.433Z,4.00
2022-08-16T08:36:33.112Z,4.50
2022-08-16T08:39:12.720Z,4.47
2022-08-16T08:41:42.545Z,4.10
2022-08-16T08:44:28.851Z,4.67
2022-08-16T08:47:01.873Z,4.67
2022-08-16T08:49:46.559Z,4.00
2022-08-16T08:52:34.404Z,3.67
2022-08-16T08:55:10.470Z,3.70
2022-08-16T08:57:41.101Z,3.77
2022-08-16T09:00:32.179Z,3.00
2022-08-16T09:03:18.967Z,2.73
2022-08-16T09:05:51.781Z,2.67
2022-08-16T09:08:26.457Z,2.33
2022-08-16T09:11:10.417Z,2.47
2022-08-16T09:13:49.460Z,3.10
2022-08-16T09:17:00.782Z,1.97
2022-08-16T09:19:19.599Z,2.40
2022-08-16T09:22:01.565Z,2.45
2022-08-16T09:24:52.336Z,2.20
2022-08-16T09:27:20.439Z,2.20
2022-08-16T09:29:49.249Z,2.30
2022-08-16T09:32:30.964Z,2.45
2022-08-16T09:35:01.553Z,2.00
2022-08-16T09:37:36.388Z,2.20
2022-08-16T09:40:32.721Z,2.17
2022-08-16T09:42:59.937Z,2.20
2022-08-16T09:45:31.294Z,1.80
2022-08-16T09:48:02.131Z,1.85
2022-08-16T09:50:36.742Z,1.77
2022-08-16T09:53:15.304Z,1.60
2022-08-16T09:55:49.448Z,1.58
2022-08-16T09:58:40.482Z,1.42
2022-08-16T10:01:17.838Z,1.50
2022-08-16T10:04:02.794Z,1.55
2022-08-16T10:06:33.541Z,1.60
2022-08-16T10:09:06.863Z,1.48
2022-08-16T10:12:17.915Z,1.50
2022-08-16T10:14:48.481Z,1.60
2022-08-16T10:17:17.217Z,1.60
2022-08-16T10:19:47.089Z,1.60
2022-08-16T10:22:19.039Z,1.55
2022-08-16T10:24:56.132Z,1.55
2022-08-16T10:27:45.788Z,1.38
2022-08-16T10:30:24.942Z,1.77
2022-08-16T10:32:55.179Z,1.40
2022-08-16T10:35:24.015Z,1.50
2022-08-16T10:38:02.220Z,1.27
2022-08-16T10:40:36.983Z,1.42
2022-08-16T10:43:08.463Z,1.45
2022-08-16T10:45:59.876Z,1.50
2022-08-16T10:48:32.065Z,1.38
2022-08-16T10:51:01.851Z,1.50
2022-08-16T10:56:52.452Z,1.50
2022-08-16T10:59:58.333Z,1.75
2022-08-16T11:03:04.739Z,1.90
2022-08-16T11:05:18.856Z,1.58
2022-08-16T11:07:52.045Z,1.80
2022-08-16T11:19:05.925Z,1.75
2022-08-16T11:24:39.873Z,2.10
2022-08-16T11:27:35.352Z,1.90
2022-08-16T11:29:58.575Z,1.95
2022-08-16T11:32:32.419Z,2.08
2022-08-16T11:35:10.290Z,1.98
2022-08-16T11:40:33.158Z,2.00
2022-08-16T11:43:04.082Z,2.15
2022-08-16T11:45:34.763Z,2.10
2022-08-16T11:48:06.481Z,2.30
2022-08-16T11:50:36.169Z,2.15
2022-08-16T11:53:08.222Z,1.90
2022-08-16T11:55:38.275Z,2.22
2022-08-16T11:58:11.010Z,2.22
2022-08-16T12:00:51.922Z,2.10
2022-08-16T12:03:34.211Z,1.80
2022-08-16T12:06:10.911Z,2.03
2022-08-16T12:08:55.604Z,2.10
2022-08-16T12:11:26.522Z,2.20
2022-08-16T12:13:55.420Z,2.00
2022-08-16T12:16:24.445Z,2.30
2022-08-16T12:19:01.507Z,2.00
2022-08-16T12:21:57.685Z,2.08
2022-08-16T12:24:23.914Z,2.35
2022-08-16T12:26:53.860Z,2.00
2022-08-16T12:29:22.557Z,1.90
2022-08-16T12:32:01.046Z,1.90
2022-08-16T12:34:48.187Z,2.00
2022-08-16T12:37:26.089Z,1.90
2022-08-16T12:39:57.736Z,2.05
2022-08-16T12:42:34.655Z,1.80
2022-08-16T12:45:06.972Z,1.90
2022-08-16T12:48:04.938Z,1.80
2022-08-16T12:50:42.770Z,1.90
2022-08-16T12:53:17.938Z,1.92
2022-08-16T12:55:46.386Z,1.70
2022-08-16T12:58:48.762Z,1.90
2022-08-16T13:01:06.790Z,1.90
2022-08-16T13:03:41.372Z,1.90
2022-08-16T13:06:12.539Z,1.88
2022-08-16T13:08:41.467Z,1.95
2022-08-16T13:11:17.705Z,1.70
2022-08-16T13:13:46.518Z,1.90
2022-08-16T13:16:27.231Z,1.73
2022-08-16T13:18:55.752Z,1.80
2022-08-16T13:21:34.835Z,1.80
2022-08-16T13:24:08.778Z,1.52
2022-08-16T13:26:45.998Z,1.73
2022-08-16T13:29:24.945Z,1.65
2022-08-16T13:32:09.413Z,1.70
2022-08-16T13:34:57.892Z,1.70
2022-08-16T13:37:27.671Z,1.50
2022-08-16T13:39:56.492Z,1.60
2022-08-16T13:42:25.390Z,1.65
2022-08-16T13:44:58.077Z,2.00
2022-08-16T13:47:30.307Z,2.10
2022-08-16T13:49:58.846Z,2.08
2022-08-16T13:52:33.987Z,1.90
2022-08-16T13:55:02.915Z,2.10
2022-08-16T13:57:42.921Z,2.20
2022-08-16T14:00:21.766Z,2.40
2022-08-16T14:02:53.767Z,2.63
2022-08-16T14:05:24.634Z,22.48
2022-08-16T14:07:54.543Z,2.45
2022-08-16T14:10:23.174Z,2.42
2022-08-16T14:12:51.992Z,3.20
2022-08-16T14:15:20.993Z,2.83
2022-08-16T14:18:15.648Z,7.28
2022-08-16T14:20:38.563Z,2.60
2022-08-16T14:23:08.487Z,2.65
2022-08-16T14:25:37.290Z,2.58
2022-08-16T14:28:05.831Z,2.80
2022-08-16T14:30:39.018Z,2.40
2022-08-16T14:33:09.181Z,2.70
2022-08-16T14:35:49.187Z,2.45
2022-08-16T14:38:29.790Z,2.53
2022-08-16T14:41:10.469Z,2.45
2022-08-16T14:43:43.421Z,2.63
2022-08-16T14:46:11.934Z,2.50
2022-08-16T14:48:50.867Z,2.17
2022-08-16T14:51:23.474Z,2.42
2022-08-16T14:54:01.364Z,2.55
2022-08-16T14:56:38.839Z,2.75
2022-08-16T14:59:11.256Z,2.35
2022-08-16T15:01:57.854Z,2.50
2022-08-16T15:04:36.874Z,2.30
2022-08-16T15:07:12.872Z,2.33
2022-08-16T15:10:00.993Z,2.38
2022-08-16T15:12:36.339Z,2.20
2022-08-16T15:15:13.056Z,2.20
2022-08-16T15:17:55.899Z,2.10
2022-08-16T15:20:29.208Z,2.22
2022-08-16T15:23:34.353Z,2.28
2022-08-16T15:26:08.009Z,2.40
2022-08-16T15:28:37.910Z,2.40
2022-08-16T15:31:09.235Z,2.40
2022-08-16T15:33:43.453Z,2.37
2022-08-16T15:36:18.053Z,2.20
2022-08-16T15:38:58.060Z,2.10
2022-08-16T15:42:27.268Z,2.30
2022-08-16T15:44:58.632Z,2.40
2022-08-16T15:47:28.459Z,2.50
2022-08-16T15:49:57.938Z,2.20
2022-08-16T15:52:31.803Z,2.27
2022-08-16T15:55:07.370Z,2.13
2022-08-16T15:57:45.074Z,2.40
2022-08-16T16:00:15.731Z,2.20
2022-08-16T16:02:45.205Z,2.03
2022-08-16T16:05:17.445Z,2.33
2022-08-16T16:07:56.442Z,2.17
2022-08-16T16:10:29.429Z,2.20
2022-08-16T16:13:03.740Z,1.90
2022-08-16T16:15:35.916Z,2.17
2022-08-16T16:18:09.390Z,2.00
2022-08-16T16:20:43.500Z,2.10
2022-08-16T16:23:14.611Z,2.07
2022-08-16T16:25:44.888Z,2.43
2022-08-16T16:29:06.458Z,1.90
2022-08-16T16:31:07.895Z,2.00
2022-08-16T16:33:39.873Z,2.00
2022-08-16T16:36:11.326Z,2.63
2022-08-16T16:38:41.958Z,2.20
2022-08-16T16:41:14.052Z,2.00
2022-08-16T16:43:45.533Z,2.10
2022-08-16T16:46:42.760Z,1.87
2022-08-16T16:49:08.807Z,1.97
2022-08-16T16:51:41.291Z,2.13
2022-08-16T16:54:27.489Z,2.00
2022-08-16T16:56:57.830Z,1.90
2022-08-16T16:59:28.300Z,2.00
2022-08-16T17:02:41.559Z,1.80
2022-08-16T17:04:47.837Z,2.10
2022-08-16T17:07:23.944Z,2.40
2022-08-16T17:10:04.295Z,2.10
2022-08-16T17:12:47.451Z,2.10
2022-08-16T17:15:18.247Z,2.53
2022-08-16T17:18:00.156Z,2.67
2022-08-16T17:20:30.694Z,3.07
2022-08-16T17:23:03.972Z,2.80
2022-08-16T17:25:36.338Z,2.77
2022-08-16T17:28:57.772Z,2.30
2022-08-16T17:30:56.426Z,2.50
2022-08-16T17:33:26.257Z,2.63
2022-08-16T17:35:55.650Z,2.70
2022-08-16T17:38:33.051Z,2.53
2022-08-16T17:41:09.435Z,2.63
2022-08-16T17:43:44.548Z,2.60
2022-08-16T17:46:41.542Z,2.90
2022-08-16T17:49:05.765Z,2.47
2022-08-16T17:51:34.807Z,2.30
2022-08-16T17:54:04.029Z,2.37
2022-08-16T17:56:32.694Z,1.83
2022-08-16T17:59:01.902Z,1.80
2022-08-16T18:01:31.827Z,1.90
2022-08-16T18:04:08.745Z,1.63
2022-08-16T18:06:38.583Z,1.77
2022-08-16T18:09:09.302Z,1.77
2022-08-16T18:11:40.832Z,1.70
2022-08-16T18:14:11.433Z,1.90
2022-08-16T18:16:41.375Z,1.70
2022-08-16T18:19:10.107Z,1.60
2022-08-16T18:21:52.340Z,2.00
2022-08-16T18:24:21.373Z,2.10
2022-08-16T18:26:49.686Z,2.20
2022-08-16T18:29:19.626Z,2.60
2022-08-16T18:31:50.928Z,2.40
2022-08-16T18:34:20.672Z,2.40
2022-08-16T18:36:50.899Z,2.30
2022-08-16T18:39:19.174Z,2.33
2022-08-16T18:41:47.910Z,2.60
2022-08-16T18:44:26.537Z,2.60
2022-08-16T18:46:58.255Z,3.10
2022-08-16T18:49:26.613Z,2.80
2022-08-16T18:51:58.613Z,2.87
2022-08-16T18:54:29.206Z,2.53
2022-08-16T18:56:58.508Z,2.73
2022-08-16T18:59:28.524Z,2.70
2022-08-16T19:02:04.971Z,2.70
2022-08-16T19:04:55.364Z,2.80
2022-08-16T19:07:31.001Z,2.90
2022-08-16T19:10:01.937Z,2.90
2022-08-16T19:12:38.003Z,3.53
2022-08-16T19:15:14.571Z,3.43
2022-08-16T19:17:47.196Z,3.47
2022-08-16T19:20:18.195Z,3.53
2022-08-16T19:23:05.914Z,3.47
2022-08-16T19:25:48.238Z,3.50
2022-08-16T19:28:49.541Z,3.30
2022-08-16T19:31:12.128Z,3.77
2022-08-16T19:33:53.548Z,3.20
2022-08-16T19:36:31.893Z,3.43
2022-08-16T19:39:06.792Z,3.33
2022-08-16T19:41:45.170Z,3.50
2022-08-16T19:44:14.535Z,3.73
2022-08-16T19:46:44.921Z,4.47
2022-08-16T19:49:16.375Z,3.63
2022-08-16T19:51:45.353Z,3.43
2022-08-16T19:54:13.884Z,4.13
2022-08-16T19:56:42.343Z,3.67
2022-08-16T19:59:19.810Z,4.00
2022-08-16T20:01:51.741Z,4.33
2022-08-16T20:04:22.811Z,4.03
2022-08-16T20:06:52.494Z,4.20
2022-08-16T20:09:21.238Z,3.93
2022-08-16T20:11:52.035Z,4.10
2022-08-16T20:14:25.613Z,4.90
2022-08-16T20:16:56.645Z,4.70
2022-08-16T20:19:27.276Z,3.80
2022-08-16T20:21:57.279Z,4.37
2022-08-16T20:24:34.778Z,4.13
2022-08-16T20:27:04.648Z,4.13
2022-08-16T20:29:33.143Z,4.20
2022-08-16T20:32:01.747Z,4.50
2022-08-16T20:34:31.679Z,4.20
2022-08-16T20:37:00.178Z,4.40
2022-08-16T20:39:28.680Z,4.40
2022-08-16T20:41:57.267Z,4.83
2022-08-16T20:44:25.666Z,4.53
2022-08-16T20:46:54.722Z,4.80
2022-08-16T20:49:23.384Z,4.70
2022-08-16T20:52:13.616Z,4.60
2022-08-16T20:54:42.854Z,4.30
2022-08-16T20:57:12.052Z,4.70
2022-08-16T20:59:40.706Z,4.63
2022-08-16T21:02:10.462Z,5.07
2022-08-16T21:04:39.333Z,4.83
2022-08-16T21:07:09.635Z,4.27
2022-08-16T21:09:38.567Z,5.00
2022-08-16T21:12:11.463Z,5.10
2022-08-16T21:14:43.091Z,4.70
2022-08-16T21:17:13.083Z,5.40
2022-08-16T21:19:41.708Z,4.33
2022-08-16T21:22:17.499Z,4.73
2022-08-16T21:24:53.876Z,5.40
2022-08-16T21:27:26.847Z,5.37
2022-08-16T21:29:57.168Z,5.40
2022-08-16T21:32:46.210Z,5.17
2022-08-16T21:35:16.669Z,4.70
2022-08-16T21:38:08.262Z,4.80
2022-08-16T21:40:37.256Z,5.20
2022-08-16T21:43:07.300Z,4.53
2022-08-16T21:45:35.773Z,4.63
2022-08-16T21:48:04.692Z,4.43
2022-08-16T21:50:33.617Z,4.57
2022-08-16T21:53:09.964Z,4.50
2022-08-16T21:55:39.886Z,4.50
2022-08-16T21:58:08.571Z,5.13
2022-08-16T22:00:37.174Z,5.30
2022-08-16T22:03:09.780Z,5.40
2022-08-16T22:05:39.887Z,5.10
2022-08-16T22:08:10.220Z,4.67
2022-08-16T22:11:07.127Z,4.70
2022-08-16T22:13:28.750Z,4.70
2022-08-16T22:15:57.442Z,4.83
2022-08-16T22:18:25.721Z,4.90
2022-08-16T22:20:55.297Z,4.63
2022-08-16T22:23:27.532Z,5.27
2022-08-16T22:25:56.906Z,5.27
2022-08-16T22:28:25.621Z,5.63
2022-08-16T22:30:54.969Z,4.73
2022-08-16T22:33:25.829Z,5.07
2022-08-16T22:35:56.178Z,4.90
2022-08-16T22:38:55.611Z,5.90
2022-08-16T22:41:14.802Z,5.47
2022-08-16T22:43:46.195Z,6.60
2022-08-16T22:46:14.494Z,6.00
2022-08-16T22:48:43.090Z,5.20
2022-08-16T22:51:11.359Z,5.80
2022-08-16T22:53:41.016Z,5.63
2022-08-16T22:56:09.705Z,5.73
2022-08-16T22:58:38.070Z,5.53
2022-08-16T23:01:07.333Z,5.77
2022-08-16T23:03:36.197Z,5.87
2022-08-16T23:06:05.810Z,4.70
2022-08-16T23:08:39.602Z,6.10
2022-08-16T23:11:12.057Z,5.50
2022-08-16T23:13:50.038Z,5.70
2022-08-16T23:16:24.985Z,5.47
2022-08-16T23:19:01.988Z,6.10
2022-08-16T23:21:31.026Z,5.77
2022-08-16T23:23:59.418Z,7.47
2022-08-16T23:26:46.192Z,6.73
2022-08-16T23:29:23.363Z,8.10
2022-08-16T23:31:59.809Z,7.57
2022-08-16T23:34:29.448Z,6.77
2022-08-16T23:36:58.195Z,6.40
2022-08-16T23:39:27.022Z,6.40
2022-08-16T23:41:56.761Z,6.30
2022-08-16T23:44:56.742Z,6.13
2022-08-16T23:47:13.569Z,6.37
2022-08-16T23:49:58.240Z,6.27
2022-08-16T23:52:53.877Z,6.57
2022-08-16T23:55:18.631Z,10.10
2022-08-16T23:57:48.410Z,7.40
